Las Vegas, Nevada
Traffic Map
Current Weather Conditions
Las Vegas, Nevada
Broken Clouds
Broken Clouds
30°
Feels Like: 30°
Wind Chill: 30° Ceiling: 25000
Heat Index: 30° Visibility: 10mi
Dew Point: -12° Wind: 21mph
Humidity: 6% Direction: 210° (SSW)
Pressure: 29.72in Gusts: 32mph
Raw Report DataKLAS 010056Z 21018G28KT 10SM BKN250 30/M12 A2972 RMK AO2 PK WND 21031/0032 SLP041 OCNL VCBLDU ACSL NW T03001117
Traffic Incident Summary
Active as of:
Severity:
Category:
InformationThere was an issue retrieving the traffic information for this location. Please try a different location or try again shortly.
Advertisements
Track Severe Weather on mobile